Beaverton, OR (97005)

6:03 AM PST on February 27, 2015 (GMT -0800)
SW 141st and Millikan Way | Change Station
CLOSE
Current Station
Personal Weather Station
Location: Beaverton, OR
Elevation: 190 ft
Nearby Weather Stations

Elev 190 ft 45.49 °N, 122.82 °W | Updated 1 minute ago

Overcast
Overcast
47.2 °F
Feels Like 47 °F
N
0.0
Wind Variable Wind from SSE

Today
High -- | Low -- °F
--% Chance of Precip.
Yesterday
High -- | Low -- °F
Precip. -- in
6:53 AM 5:55 PM
Waxing Gibbous, 69% visible
Pressure 29.74 in
Visibility 7.0 miles
Clouds Mostly Cloudy 1000 ft
Mostly Cloudy 2500 ft
Overcast 8000 ft
Windchill 47 °F
Dew Point 44 °F
Humidity 88%
Rainfall 0.12 in
Snow Depth Not available.
UV 0.0 out of 12
Pollen .60 out of 12
Air Quality Not available.
Flu Activity Not available.
SPECI KHIO 271314Z AUTO 17003KT 7SM BKN010 BKN025 OVC080 08/08 A2974 RMK AO2 T00830078

More Conditions Fewer Conditions

Pressure 29.74 in
Visibility 7.0 miles
Clouds Mostly Cloudy 1000 ft
Mostly Cloudy 2500 ft
Overcast 8000 ft
Windchill 47 °F
Dew Point 44 °F
Humidity 88%
Rainfall 0.12 in
Snow Depth Not available.
UV 0.0 out of 12
Pollen .60 out of 12
Air Quality Not available.
Flu Activity Not available.
SPECI KHIO 271314Z AUTO 17003KT 7SM BKN010 BKN025 OVC080 08/08 A2974 RMK AO2 T00830078

More Conditions Fewer Conditions

10-Day Weather Forecast

Almanac

Astronomy

Feb. 27, 2015 Rise Set
Actual Time
Civil Twilight
Nautical Twilight
Astronomical Twilight
Moon
Length of Visible Light
Length of Day
Tomorrow will be .
, % of the Moon is Illuminated

Today's Extremes

State Highs State Lows

Community

WunderPhotos

Upload Photos

1,800,678 photos uploaded!

WunderBlogs® & News

Nearby

Air Quality

  Air Quality AQ Index Pollutant
Not available.

Snow Depth

Station Depth Elevation

Earthquake Activity

City Distance Mag. Time & Date
Minimum magnitude displayed is 2.5.

Coastal Water Temperatures

Place Temperature

Nearby Weather Stations